Aérodrome :
LOGIN :

S'inscrire | Disclaimer

   EN    FR    IT 

 










Légende :    VFR   VFR Marginal   IFR   IFR Intensif   IFR Très Intensif
Visi : 
Plafond : 
>= 8 km
>= 3000ft
5 à 8 km
1000 à 3000 ft
1500m à 5 km
500 à 1000 ft
800 à 1500m
200 à 500 ft
< 800m
< 200 ft
Symboles :   Orages  Brouillard  Fortes neiges  Fortes précipitations  Vent > 20 kt
SIGMETs :   Divers  Orages  Givrage  Turbulence  Onde Orograph.  Cendres Volcan.







- Altitude de l'aérodrome : 1090 ft
- Code IATA : CFE
- Voir les cartes d'approche


LFLC - Clermont-Ferrand Auvergne

DERNIER METAR :
  • 160600Z AUTO VRB03KT CAVOK 19/15 Q1013 NOSIG

METARs EXPIRÉS :
  • 160530Z AUTO VRB03KT CAVOK 18/14 Q1013 NOSIG
  • 160500Z AUTO 00000KT CAVOK 15/13 Q1013 NOSIG
  • 160430Z AUTO 33002KT CAVOK 14/12 Q1013 NOSIG
  • 160400Z AUTO 35002KT CAVOK 15/12 Q1013 NOSIG
  • 160330Z AUTO VRB01KT CAVOK 16/14 Q1013 NOSIG

TAF TAF LFLC
Valide du 16 à 03h jusqu'au 17 à 03h UTC


160200Z 1603/1703 18008KT CAVOK
TEMPO 1608/1612 36008KT
TEMPO 1611/1620 FEW050CB
PROB40
TEMPO 1612/1617 VRB20G35KT 3000 TSRA BKN040CB
ATIS : +33 4 73 62 74 38
Pas de NOTAMs connus pour ce terrain.
1 SIGMET publié pour la FIR Marseille (LFMM) :
 
Orages noyés dans la masse
LFMM SIGMET 1 VALID 160555/160800 LFPW
LFMM MARSEILLE FIR/UIR EMBD TS OBS AT 0555Z WI N4215 E00330 - N4215 E00230 - N4345 E00245 - N4345 E00445 - N4230 E00400 - N4215 E00330 TOP FL380 MOV NE 20KT NC=



MET'MAP, la Météo Aéronautique d'un coup d'oeil ! - Copyright ORBIFLY Décembre 2007 - Disclaimer

ORBIFLY MET'MAP TEAM :

Programmation & Développement : Alexandra Zaïnal
Conception & Développement : Baudouin d'Aumeries
Co-Programmation & Développement : Marc-Olivier Méhu
Soutien technique & logistique : Manuel Goepfert

Contact : metmap@orbifly.com




SOURCES & CREDITS :

   NOAA